Time;durP1;ratioP1;P1;durP2;ratioP2;P2;SDS_P1;SDS_P2;PMS_P1;PMS_P2;Temp;Humidity;BMP_temperature;BMP_pressure;BME280_temperature;BME280_humidity;BME280_pressure;Samples;Min_cycle;Max_cycle;Signal;HPM_P1;HPM_P2
2022/06/26 00:01:44;;;;;;;9.57;5.43;;;;;;;;;;4880099;29;20029;-76
2022/06/26 00:04:10;;;;;;;8.68;5.32;;;;;;;;;;4880797;29;20033;-81
2022/06/26 00:06:37;;;;;;;6.03;5.35;;;;;;;;;;4880056;29;20035;-78
2022/06/26 00:09:04;;;;;;;7.55;5.30;;;;;;;;;;4879625;29;20040;-77
2022/06/26 00:11:30;;;;;;;7.35;5.28;;;;;;;;;;4878813;29;20060;-91
2022/06/26 00:13:56;;;;;;;9.05;5.82;;;;;;;;;;4878841;29;20407;-77
2022/06/26 00:16:23;;;;;;;8.85;6.47;;;;;;;;;;4880287;29;20057;-87
2022/06/26 00:18:49;;;;;;;7.13;6.43;;;;;;;;;;4879471;29;20116;-92
2022/06/26 00:21:15;;;;;;;7.15;6.45;;;;;;;;;;4888509;29;20015;-83
2022/06/26 00:23:42;;;;;;;7.40;6.50;;;;;;;;;;4881861;29;20037;-91
2022/06/26 00:26:11;;;;;;;7.45;6.68;;;;;;;;;;4878640;29;20029;-90
2022/06/26 00:28:37;;;;;;;8.05;6.22;;;;;;;;;;4880431;29;20033;-78
2022/06/26 00:31:03;;;;;;;7.00;6.30;;;;;;;;;;4878825;29;20044;-91
2022/06/26 00:33:29;;;;;;;8.60;6.75;;;;;;;;;;4879028;29;20041;-77
2022/06/26 00:35:56;;;;;;;7.65;6.95;;;;;;;;;;4880260;29;20029;-78
2022/06/26 00:38:22;;;;;;;6.90;6.30;;;;;;;;;;4883815;29;20104;-90
2022/06/26 00:40:49;;;;;;;6.53;5.93;;;;;;;;;;4882687;29;20029;-77
2022/06/26 00:43:15;;;;;;;7.07;5.97;;;;;;;;;;4880248;29;20029;-91
2022/06/26 00:45:41;;;;;;;6.57;5.72;;;;;;;;;;4878962;29;20204;-76
2022/06/26 00:48:07;;;;;;;7.13;6.30;;;;;;;;;;4878838;29;20471;-90
2022/06/26 00:50:33;;;;;;;6.90;5.40;;;;;;;;;;4880121;29;20025;-77
2022/06/26 00:52:59;;;;;;;7.55;5.40;;;;;;;;;;4881142;29;20444;-76
2022/06/26 00:55:26;;;;;;;9.45;5.05;;;;;;;;;;4881219;29;20045;-85
2022/06/26 00:57:52;;;;;;;7.35;5.13;;;;;;;;;;4882811;29;20040;-90
2022/06/26 01:00:20;;;;;;;7.30;5.45;;;;;;;;;;4882200;29;20029;-90
2022/06/26 01:02:46;;;;;;;9.35;5.10;;;;;;;;;;4881808;29;20387;-77
2022/06/26 01:05:12;;;;;;;12.40;5.22;;;;;;;;;;4881750;29;20033;-89
2022/06/26 01:07:39;;;;;;;10.70;5.28;;;;;;;;;;4882679;29;20033;-90
2022/06/26 01:10:06;;;;;;;9.68;5.18;;;;;;;;;;4884045;29;20032;-88
2022/06/26 01:12:32;;;;;;;10.32;5.05;;;;;;;;;;4890829;29;20095;-76
2022/06/26 01:14:59;;;;;;;14.85;5.40;;;;;;;;;;4883287;29;20037;-91
2022/06/26 01:17:26;;;;;;;13.80;5.80;;;;;;;;;;4881378;29;20423;-75
2022/06/26 01:19:52;;;;;;;10.65;5.18;;;;;;;;;;4882383;29;20028;-87
2022/06/26 01:22:18;;;;;;;13.60;5.28;;;;;;;;;;4881839;29;20036;-83
2022/06/26 01:24:45;;;;;;;10.40;4.90;;;;;;;;;;4881383;29;20463;-77
2022/06/26 01:27:11;;;;;;;10.32;5.20;;;;;;;;;;4881248;29;20028;-91
2022/06/26 01:29:37;;;;;;;8.60;5.07;;;;;;;;;;4881239;29;20144;-75
2022/06/26 01:32:04;;;;;;;8.40;5.20;;;;;;;;;;4881259;29;20041;-76
2022/06/26 01:34:30;;;;;;;7.38;5.28;;;;;;;;;;4881483;29;20037;-91
2022/06/26 01:36:56;;;;;;;9.55;5.32;;;;;;;;;;4881343;29;20025;-76
2022/06/26 01:39:22;;;;;;;11.40;5.50;;;;;;;;;;4881841;29;20024;-88
2022/06/26 01:41:49;;;;;;;14.68;5.53;;;;;;;;;;4880945;29;20029;-91
2022/06/26 01:44:16;;;;;;;9.30;5.35;;;;;;;;;;4881369;29;20088;-77
2022/06/26 01:46:42;;;;;;;8.23;5.50;;;;;;;;;;4882848;29;20368;-90
2022/06/26 01:49:08;;;;;;;8.07;5.72;;;;;;;;;;4885491;29;20043;-77
2022/06/26 01:51:34;;;;;;;7.53;5.60;;;;;;;;;;4880874;29;20049;-75
2022/06/26 01:54:01;;;;;;;13.10;5.28;;;;;;;;;;4880872;29;20051;-90
2022/06/26 01:56:27;;;;;;;8.00;5.18;;;;;;;;;;4881007;29;20033;-77
2022/06/26 01:58:53;;;;;;;8.93;5.28;;;;;;;;;;4881206;29;20066;-76
2022/06/26 02:01:19;;;;;;;6.75;4.82;;;;;;;;;;4880607;29;20073;-90
2022/06/26 02:03:46;;;;;;;10.32;5.30;;;;;;;;;;4879993;29;20398;-79
2022/06/26 02:06:12;;;;;;;9.43;5.35;;;;;;;;;;4880713;29;20041;-90
2022/06/26 02:08:38;;;;;;;8.85;5.47;;;;;;;;;;4881946;29;20471;-76
2022/06/26 02:13:50;;;;;;;11.20;5.05;;;;;;;;;;4882292;29;20140;-90
2022/06/26 02:16:21;;;;;;;11.77;5.15;;;;;;;;;;4884587;29;20029;-77
2022/06/26 02:18:58;;;;;;;7.05;5.55;;;;;;;;;;4882602;29;20191;-90
2022/06/26 02:21:27;;;;;;;9.18;5.25;;;;;;;;;;4891191;29;20033;-90
2022/06/26 02:23:54;;;;;;;7.18;5.10;;;;;;;;;;4880118;29;20461;-87
2022/06/26 02:26:21;;;;;;;7.15;5.30;;;;;;;;;;4880666;29;20042;-90
2022/06/26 02:28:47;;;;;;;6.57;5.03;;;;;;;;;;4880533;29;20036;-76
2022/06/26 02:31:14;;;;;;;5.82;5.00;;;;;;;;;;4881950;29;20509;-76
2022/06/26 02:33:41;;;;;;;8.48;4.80;;;;;;;;;;4880324;29;20037;-89
2022/06/26 02:36:08;;;;;;;9.05;5.07;;;;;;;;;;4879901;29;20033;-88
2022/06/26 02:38:37;;;;;;;7.35;4.88;;;;;;;;;;4880293;29;20033;-89
2022/06/26 02:41:04;;;;;;;11.13;5.10;;;;;;;;;;4879999;29;20062;-76
2022/06/26 02:43:30;;;;;;;8.43;4.80;;;;;;;;;;4879889;29;20103;-90
2022/06/26 02:45:56;;;;;;;8.20;5.00;;;;;;;;;;4880346;29;20033;-77
2022/06/26 02:48:23;;;;;;;9.27;5.00;;;;;;;;;;4879813;29;20112;-89
2022/06/26 02:50:49;;;;;;;6.00;4.40;;;;;;;;;;4880178;29;20064;-89
2022/06/26 02:53:16;;;;;;;9.80;5.35;;;;;;;;;;4884143;29;20112;-88
2022/06/26 02:55:43;;;;;;;13.23;5.40;;;;;;;;;;4881786;29;20116;-88
2022/06/26 02:58:09;;;;;;;10.40;5.43;;;;;;;;;;4879593;29;20100;-75
2022/06/26 03:00:35;;;;;;;13.70;5.60;;;;;;;;;;4880894;29;20067;-75
2022/06/26 03:03:02;;;;;;;11.82;5.65;;;;;;;;;;4879400;29;20072;-75
2022/06/26 03:05:28;;;;;;;10.32;5.53;;;;;;;;;;4880607;29;20029;-76
2022/06/26 03:07:56;;;;;;;11.55;5.60;;;;;;;;;;4879252;29;20033;-90
2022/06/26 03:10:23;;;;;;;11.82;5.68;;;;;;;;;;4879426;29;20056;-79
2022/06/26 03:12:50;;;;;;;8.18;5.75;;;;;;;;;;4879068;29;20435;-76
2022/06/26 03:15:17;;;;;;;10.45;5.75;;;;;;;;;;4879108;29;20025;-90
2022/06/26 03:17:43;;;;;;;9.88;5.13;;;;;;;;;;4879370;29;20044;-87
2022/06/26 03:20:17;;;;;;;9.27;5.10;;;;;;;;;;4878905;29;20052;-76
2022/06/26 03:22:44;;;;;;;9.65;5.10;;;;;;;;;;4879087;29;20056;-90
2022/06/26 03:25:10;;;;;;;12.25;5.38;;;;;;;;;;4879008;29;20390;-75
2022/06/26 03:27:37;;;;;;;8.20;4.38;;;;;;;;;;4879133;29;20021;-76
2022/06/26 03:30:11;;;;;;;6.75;4.50;;;;;;;;;;4882972;29;20044;-89
2022/06/26 03:32:41;;;;;;;9.02;4.93;;;;;;;;;;4878972;29;20055;-90
2022/06/26 03:35:10;;;;;;;13.52;5.05;;;;;;;;;;4879158;29;20040;-91
2022/06/26 03:37:36;;;;;;;9.70;5.22;;;;;;;;;;4878986;29;20035;-78
2022/06/26 03:40:03;;;;;;;6.15;4.85;;;;;;;;;;4878871;29;20037;-91
2022/06/26 03:42:29;;;;;;;8.57;5.03;;;;;;;;;;4879090;29;20031;-78
2022/06/26 03:44:55;;;;;;;7.40;4.55;;;;;;;;;;4878932;29;20032;-77
2022/06/26 03:47:21;;;;;;;8.55;5.18;;;;;;;;;;4878830;29;20514;-77
2022/06/26 03:49:52;;;;;;;9.25;5.55;;;;;;;;;;4879170;29;20029;-77
2022/06/26 03:52:18;;;;;;;10.10;5.10;;;;;;;;;;4879548;29;20063;-91
2022/06/26 03:54:44;;;;;;;13.07;5.78;;;;;;;;;;4883646;29;20025;-77
2022/06/26 03:57:11;;;;;;;8.43;5.55;;;;;;;;;;4878579;29;20029;-78
2022/06/26 03:59:37;;;;;;;9.68;6.78;;;;;;;;;;4879566;29;20040;-78
2022/06/26 04:02:07;;;;;;;8.63;5.80;;;;;;;;;;4878690;29;20033;-90
2022/06/26 04:04:33;;;;;;;11.18;5.60;;;;;;;;;;4881191;29;20514;-78
2022/06/26 04:07:02;;;;;;;9.05;5.90;;;;;;;;;;4880212;29;20073;-91
2022/06/26 04:09:28;;;;;;;6.38;5.53;;;;;;;;;;4878535;29;20029;-91
2022/06/26 04:11:54;;;;;;;7.85;6.10;;;;;;;;;;4878568;29;20060;-77
2022/06/26 04:14:21;;;;;;;6.93;5.20;;;;;;;;;;4878697;29;20033;-91
2022/06/26 04:16:47;;;;;;;6.50;5.80;;;;;;;;;;4878589;29;20129;-78
2022/06/26 04:19:13;;;;;;;10.90;5.70;;;;;;;;;;4880302;29;20398;-79
2022/06/26 04:21:39;;;;;;;6.13;4.88;;;;;;;;;;4878479;29;20029;-76
2022/06/26 04:24:08;;;;;;;9.15;4.30;;;;;;;;;;4880012;29;20037;-91
2022/06/26 04:26:41;;;;;;;9.55;4.93;;;;;;;;;;4879607;29;20033;-91
2022/06/26 04:29:07;;;;;;;6.93;4.60;;;;;;;;;;4883478;29;20033;-78
2022/06/26 04:31:34;;;;;;;11.80;5.53;;;;;;;;;;4881869;29;20028;-76
2022/06/26 04:34:00;;;;;;;8.32;5.30;;;;;;;;;;4883436;29;20062;-78
2022/06/26 04:36:26;;;;;;;9.50;5.00;;;;;;;;;;4881943;29;20398;-77
2022/06/26 04:38:53;;;;;;;10.48;4.05;;;;;;;;;;4888155;29;20100;-90
2022/06/26 04:41:31;;;;;;;6.28;3.60;;;;;;;;;;4885057;29;20482;-92
2022/06/26 04:44:03;;;;;;;7.18;3.90;;;;;;;;;;4882545;29;20037;-82
2022/06/26 04:46:30;;;;;;;9.13;4.00;;;;;;;;;;4882135;29;20538;-77
2022/06/26 04:48:56;;;;;;;7.47;4.03;;;;;;;;;;4882039;29;20112;-79
2022/06/26 04:51:22;;;;;;;11.95;4.53;;;;;;;;;;4882231;29;20490;-87
2022/06/26 04:53:51;;;;;;;6.40;4.43;;;;;;;;;;4882172;29;20037;-92
2022/06/26 04:56:18;;;;;;;8.45;3.92;;;;;;;;;;4883385;29;20107;-92
2022/06/26 04:58:44;;;;;;;5.93;3.50;;;;;;;;;;4882025;29;20029;-77
2022/06/26 05:01:10;;;;;;;8.32;4.10;;;;;;;;;;4882303;29;20051;-78
2022/06/26 05:03:36;;;;;;;10.18;4.10;;;;;;;;;;4881330;29;20397;-91
2022/06/26 05:06:02;;;;;;;6.32;4.15;;;;;;;;;;4881224;29;20483;-78
2022/06/26 05:08:29;;;;;;;8.00;3.95;;;;;;;;;;4881538;29;20037;-77
2022/06/26 05:10:58;;;;;;;8.90;3.65;;;;;;;;;;4882434;29;20482;-77
2022/06/26 05:13:24;;;;;;;5.25;3.80;;;;;;;;;;4882944;29;20045;-78
2022/06/26 05:15:51;;;;;;;6.32;4.40;;;;;;;;;;4886174;29;20502;-76
2022/06/26 05:18:17;;;;;;;4.72;4.03;;;;;;;;;;4881438;29;20040;-78
2022/06/26 05:20:49;;;;;;;4.53;4.03;;;;;;;;;;4881422;29;20033;-91
2022/06/26 05:23:16;;;;;;;4.75;4.25;;;;;;;;;;4882854;29;20040;-78
2022/06/26 05:25:43;;;;;;;4.55;3.17;;;;;;;;;;4882957;29;20033;-77
2022/06/26 05:28:12;;;;;;;5.32;2.90;;;;;;;;;;4881552;29;20120;-93
2022/06/26 05:30:41;;;;;;;3.97;2.53;;;;;;;;;;4887888;29;20386;-92
2022/06/26 05:33:08;;;;;;;5.93;3.75;;;;;;;;;;4881375;29;20491;-78
2022/06/26 05:35:43;;;;;;;4.00;2.75;;;;;;;;;;4880902;29;20044;-91
2022/06/26 05:38:16;;;;;;;4.40;2.45;;;;;;;;;;4862972;29;20137;-90
2022/06/26 05:40:45;;;;;;;3.75;3.03;;;;;;;;;;4880993;29;20109;-91
2022/06/26 05:43:14;;;;;;;4.35;2.92;;;;;;;;;;4881125;29;20037;-90
2022/06/26 05:45:51;;;;;;;4.75;4.03;;;;;;;;;;4881954;29;20042;-90
2022/06/26 05:48:17;;;;;;;3.15;2.85;;;;;;;;;;4882666;29;20029;-79
2022/06/26 05:50:43;;;;;;;5.70;3.97;;;;;;;;;;4882221;29;20105;-78
2022/06/26 05:53:09;;;;;;;4.25;3.00;;;;;;;;;;4880595;29;20047;-77
2022/06/26 05:55:36;;;;;;;3.78;3.10;;;;;;;;;;4881856;29;20068;-78
2022/06/26 05:58:02;;;;;;;3.40;3.00;;;;;;;;;;4880541;29;20065;-87
2022/06/26 06:00:28;;;;;;;3.35;3.00;;;;;;;;;;4880514;29;20124;-87
2022/06/26 06:02:55;;;;;;;5.03;2.92;;;;;;;;;;4881206;29;20055;-85
2022/06/26 06:05:21;;;;;;;4.50;2.78;;;;;;;;;;4880725;29;20037;-78
2022/06/26 06:07:47;;;;;;;3.33;2.83;;;;;;;;;;4880252;29;20080;-78
2022/06/26 06:10:14;;;;;;;3.08;2.63;;;;;;;;;;4879816;29;20037;-78
2022/06/26 06:12:40;;;;;;;2.40;2.20;;;;;;;;;;4881341;29;20183;-79
2022/06/26 06:15:06;;;;;;;4.45;2.90;;;;;;;;;;4881219;29;20029;-82
2022/06/26 06:17:35;;;;;;;3.28;2.58;;;;;;;;;;4879960;29;20029;-79
2022/06/26 06:20:03;;;;;;;2.92;2.25;;;;;;;;;;4879614;29;20116;-80
2022/06/26 06:22:32;;;;;;;3.63;2.38;;;;;;;;;;4879875;29;20029;-78
2022/06/26 06:24:59;;;;;;;3.58;2.22;;;;;;;;;;4885583;29;20037;-82
2022/06/26 06:27:25;;;;;;;2.67;1.92;;;;;;;;;;4879575;29;20039;-83
2022/06/26 06:29:51;;;;;;;2.85;2.40;;;;;;;;;;4879451;29;20061;-79
2022/06/26 06:32:21;;;;;;;5.75;2.10;;;;;;;;;;4879344;29;20055;-79
2022/06/26 06:34:47;;;;;;;3.15;1.60;;;;;;;;;;4880657;29;20479;-81
2022/06/26 06:37:13;;;;;;;5.28;2.17;;;;;;;;;;4879349;29;20029;-78
2022/06/26 06:39:39;;;;;;;5.05;1.75;;;;;;;;;;4879256;29;20081;-80
2022/06/26 06:42:05;;;;;;;4.20;2.00;;;;;;;;;;4880555;29;20105;-78
2022/06/26 06:44:32;;;;;;;2.88;2.10;;;;;;;;;;4879249;29;20033;-79
2022/06/26 06:46:58;;;;;;;2.92;1.50;;;;;;;;;;4879124;29;20043;-80
2022/06/26 06:49:24;;;;;;;3.35;1.67;;;;;;;;;;4879531;29;20407;-90
2022/06/26 06:51:50;;;;;;;3.47;1.45;;;;;;;;;;4879557;29;20029;-77
2022/06/26 06:54:17;;;;;;;2.20;1.30;;;;;;;;;;4880425;29;20048;-86
2022/06/26 06:56:43;;;;;;;3.92;1.50;;;;;;;;;;4879424;29;20033;-87
2022/06/26 06:59:09;;;;;;;2.67;1.30;;;;;;;;;;4879546;29;20040;-83
2022/06/26 07:01:35;;;;;;;1.77;1.35;;;;;;;;;;4879387;29;20193;-80
2022/06/26 07:04:01;;;;;;;2.88;1.20;;;;;;;;;;4879136;29;20104;-82
2022/06/26 07:06:27;;;;;;;4.97;1.42;;;;;;;;;;4880156;29;20029;-77
2022/06/26 07:08:53;;;;;;;2.17;1.40;;;;;;;;;;4890590;29;20045;-82
2022/06/26 07:11:20;;;;;;;2.08;1.10;;;;;;;;;;4880638;29;20068;-90
2022/06/26 07:13:46;;;;;;;2.20;1.23;;;;;;;;;;4878816;29;20070;-80
2022/06/26 07:16:13;;;;;;;2.50;1.10;;;;;;;;;;4878487;29;20497;-78
2022/06/26 07:18:39;;;;;;;1.90;1.10;;;;;;;;;;4878299;29;20398;-78
2022/06/26 07:21:07;;;;;;;3.35;1.20;;;;;;;;;;4878630;29;20033;-80
2022/06/26 07:23:33;;;;;;;1.95;0.90;;;;;;;;;;4878589;29;20076;-79
2022/06/26 07:25:59;;;;;;;2.05;0.90;;;;;;;;;;4879562;29;20029;-87
2022/06/26 07:28:25;;;;;;;2.95;1.27;;;;;;;;;;4879379;29;20067;-78
2022/06/26 07:30:52;;;;;;;1.52;1.27;;;;;;;;;;4879231;29;20033;-80
2022/06/26 07:36:06;;;;;;;2.53;1.15;;;;;;;;;;4880399;29;20036;-87
2022/06/26 07:38:32;;;;;;;2.00;1.00;;;;;;;;;;4878739;29;20148;-87
2022/06/26 07:40:58;;;;;;;2.15;0.95;;;;;;;;;;4878554;29;20483;-79
2022/06/26 07:43:25;;;;;;;1.50;0.77;;;;;;;;;;4878623;29;20044;-79
2022/06/26 07:45:54;;;;;;;2.17;1.20;;;;;;;;;;4879538;29;20029;-81
2022/06/26 07:48:20;;;;;;;3.35;1.00;;;;;;;;;;4880915;29;20116;-82
2022/06/26 07:50:52;;;;;;;2.17;0.95;;;;;;;;;;4878762;29;20033;-91
2022/06/26 07:53:19;;;;;;;1.60;0.93;;;;;;;;;;4878077;29;20041;-78
2022/06/26 07:55:45;;;;;;;1.85;1.02;;;;;;;;;;4879839;29;20478;-79
2022/06/26 07:58:11;;;;;;;1.80;1.00;;;;;;;;;;4878383;29;20044;-78
2022/06/26 08:00:38;;;;;;;1.63;0.90;;;;;;;;;;4879857;29;20501;-79
2022/06/26 08:03:10;;;;;;;3.38;1.10;;;;;;;;;;4881898;29;20092;-79
2022/06/26 08:05:37;;;;;;;2.00;0.90;;;;;;;;;;4882138;29;20089;-78
2022/06/26 08:08:04;;;;;;;3.65;0.80;;;;;;;;;;4881961;29;20119;-90
2022/06/26 08:10:30;;;;;;;1.30;0.80;;;;;;;;;;4882326;29;20040;-81
2022/06/26 08:12:59;;;;;;;1.65;0.75;;;;;;;;;;4881797;29;20146;-91
2022/06/26 08:15:25;;;;;;;1.60;0.80;;;;;;;;;;4882334;29;20030;-79
2022/06/26 08:17:54;;;;;;;1.90;0.80;;;;;;;;;;4882144;29;20085;-92
2022/06/26 08:20:21;;;;;;;2.17;0.80;;;;;;;;;;4882198;29;20021;-79
2022/06/26 08:22:47;;;;;;;2.22;0.77;;;;;;;;;;4882266;29;20036;-79
2022/06/26 08:25:13;;;;;;;2.45;0.90;;;;;;;;;;4882668;29;20129;-80
2022/06/26 08:27:39;;;;;;;3.15;1.00;;;;;;;;;;4883556;29;20072;-78
2022/06/26 08:30:06;;;;;;;1.88;0.88;;;;;;;;;;4883109;29;20502;-80
2022/06/26 08:32:32;;;;;;;1.52;0.80;;;;;;;;;;4881728;29;20033;-79
2022/06/26 08:34:58;;;;;;;1.15;0.73;;;;;;;;;;4881700;29;20394;-81
2022/06/26 08:37:34;;;;;;;2.33;0.80;;;;;;;;;;4881864;29;20029;-91
2022/06/26 08:40:00;;;;;;;3.40;1.17;;;;;;;;;;4882844;29;20379;-81
2022/06/26 08:42:27;;;;;;;1.67;1.00;;;;;;;;;;4881631;29;20104;-79
2022/06/26 08:44:56;;;;;;;2.72;0.68;;;;;;;;;;4881810;29;20041;-81
2022/06/26 08:47:24;;;;;;;1.40;0.90;;;;;;;;;;4881465;29;20089;-78
2022/06/26 08:49:51;;;;;;;1.48;0.90;;;;;;;;;;4881730;29;20033;-81
2022/06/26 08:52:18;;;;;;;1.98;0.82;;;;;;;;;;4882594;29;20041;-80
2022/06/26 08:54:44;;;;;;;2.28;1.00;;;;;;;;;;4881461;29;20393;-82
2022/06/26 08:57:13;;;;;;;2.13;0.90;;;;;;;;;;4881581;29;20554;-82
2022/06/26 08:59:44;;;;;;;2.22;0.90;;;;;;;;;;4882908;29;20064;-80
2022/06/26 09:02:10;;;;;;;2.35;0.80;;;;;;;;;;4883145;29;20387;-81
2022/06/26 09:04:37;;;;;;;1.30;0.70;;;;;;;;;;4882863;29;20025;-78
2022/06/26 09:07:07;;;;;;;2.10;0.63;;;;;;;;;;4881193;29;20048;-92
2022/06/26 09:09:33;;;;;;;2.53;0.68;;;;;;;;;;4881129;29;20044;-78
2022/06/26 09:12:00;;;;;;;1.30;0.90;;;;;;;;;;4881794;29;20104;-80
2022/06/26 09:14:31;;;;;;;1.40;0.63;;;;;;;;;;4880897;29;20092;-92
2022/06/26 09:16:58;;;;;;;1.98;0.90;;;;;;;;;;4882147;29;20044;-82
2022/06/26 09:19:27;;;;;;;1.95;0.70;;;;;;;;;;4881431;29;20033;-94
2022/06/26 09:22:04;;;;;;;2.35;0.70;;;;;;;;;;4881395;29;20103;-85
2022/06/26 09:24:32;;;;;;;1.65;0.90;;;;;;;;;;4880937;29;20052;-77
2022/06/26 09:27:07;;;;;;;1.55;0.75;;;;;;;;;;4887169;29;20057;-79
2022/06/26 09:29:33;;;;;;;2.08;1.10;;;;;;;;;;4887642;29;20037;-75
2022/06/26 09:32:13;;;;;;;2.70;0.80;;;;;;;;;;4883325;29;20423;-78
2022/06/26 09:34:47;;;;;;;1.65;0.70;;;;;;;;;;4882676;29;20033;-76
2022/06/26 09:37:13;;;;;;;1.48;0.80;;;;;;;;;;4882335;29;20025;-76
2022/06/26 09:39:40;;;;;;;4.57;0.70;;;;;;;;;;4864400;29;20040;-79
2022/06/26 09:42:19;;;;;;;1.83;0.73;;;;;;;;;;4863788;29;20116;-83
2022/06/26 09:44:49;;;;;;;4.40;0.90;;;;;;;;;;4864721;29;20064;-82
2022/06/26 09:47:15;;;;;;;;;;;;;;;;;;4865233;29;20033;-84
2022/06/26 09:49:42;;;;;;;1.75;0.82;;;;;;;;;;4881401;29;19985;-78
2022/06/26 09:52:08;;;;;;;2.75;1.10;;;;;;;;;;4880998;29;20029;-78
2022/06/26 09:54:34;;;;;;;1.60;1.20;;;;;;;;;;4866819;29;20033;-77
2022/06/26 09:57:00;;;;;;;2.60;0.93;;;;;;;;;;4880533;29;20028;-79
2022/06/26 09:59:27;;;;;;;2.60;0.82;;;;;;;;;;4889965;29;20479;-83
2022/06/26 10:07:28;;;;;;;2.17;0.90;;;;;;;;;;4881945;29;20093;-90
2022/06/26 10:09:57;;;;;;;1.35;0.75;;;;;;;;;;4881716;29;20103;-83
2022/06/26 10:12:24;;;;;;;1.63;0.70;;;;;;;;;;4864451;29;20080;-86
2022/06/26 10:14:53;;;;;;;2.42;1.00;;;;;;;;;;4864711;29;20033;-84
2022/06/26 10:17:22;;;;;;;1.80;0.77;;;;;;;;;;4864392;29;20030;-84
2022/06/26 10:19:52;;;;;;;1.55;0.70;;;;;;;;;;4864724;29;20559;-87
2022/06/26 10:22:19;;;;;;;3.58;2.95;;;;;;;;;;4864748;29;20550;-85
2022/06/26 10:24:59;;;;;;;3.05;0.98;;;;;;;;;;4863949;29;20120;-89
2022/06/26 10:27:26;;;;;;;2.28;0.80;;;;;;;;;;4864612;29;20483;-90
2022/06/26 10:30:03;;;;;;;2.20;0.90;;;;;;;;;;4881487;29;20025;-83
2022/06/26 10:32:30;;;;;;;1.55;0.95;;;;;;;;;;4865986;29;20032;-82
2022/06/26 10:34:56;;;;;;;2.25;1.33;;;;;;;;;;4864577;29;20399;-82
2022/06/26 10:37:22;;;;;;;2.05;1.20;;;;;;;;;;4864549;29;20036;-92
2022/06/26 10:39:51;;;;;;;2.63;1.20;;;;;;;;;;4863767;29;20061;-82
2022/06/26 10:45:12;;;;;;;2.15;1.10;;;;;;;;;;4880363;29;20502;-82
2022/06/26 10:47:44;;;;;;;2.10;1.25;;;;;;;;;;4864161;29;20056;-82
2022/06/26 10:50:29;;;;;;;2.53;1.50;;;;;;;;;;4864301;29;20036;-83
2022/06/26 10:53:11;;;;;;;2.20;1.35;;;;;;;;;;4865871;29;20051;-81
2022/06/26 10:55:38;;;;;;;1.70;1.17;;;;;;;;;;4880929;29;20491;-88
2022/06/26 10:58:04;;;;;;;2.15;1.27;;;;;;;;;;4863811;29;20045;-85
2022/06/26 11:00:30;;;;;;;1.90;1.25;;;;;;;;;;4863704;29;20032;-95
2022/06/26 11:02:56;;;;;;;3.38;1.40;;;;;;;;;;4866325;29;20455;-81
2022/06/26 11:05:22;;;;;;;2.42;1.35;;;;;;;;;;4869128;29;20050;-80
2022/06/26 11:07:50;;;;;;;2.53;1.30;;;;;;;;;;4871335;29;20029;-78
2022/06/26 11:10:19;;;;;;;2.03;1.40;;;;;;;;;;4873344;29;20390;-90
2022/06/26 11:12:53;;;;;;;2.90;1.40;;;;;;;;;;4872796;29;20140;-90
2022/06/26 11:15:20;;;;;;;3.58;1.80;;;;;;;;;;4879198;29;20029;-81
2022/06/26 11:17:57;;;;;;;1.98;1.30;;;;;;;;;;4892155;29;20028;-80
2022/06/26 11:23:15;;;;;;;4.53;1.58;;;;;;;;;;4879542;29;20066;-92
2022/06/26 11:25:41;;;;;;;3.15;1.40;;;;;;;;;;4879808;29;20021;-85
2022/06/26 11:28:11;;;;;;;2.65;1.60;;;;;;;;;;4863380;29;20025;-88
2022/06/26 11:30:38;;;;;;;3.47;1.58;;;;;;;;;;4863429;29;20033;-91
2022/06/26 11:33:05;;;;;;;2.17;1.42;;;;;;;;;;4864329;29;20129;-82
2022/06/26 11:35:33;;;;;;;2.03;1.20;;;;;;;;;;4863261;29;20060;-87
2022/06/26 11:38:16;;;;;;;2.90;1.45;;;;;;;;;;4863410;29;20360;-89
2022/06/26 11:40:43;;;;;;;4.28;1.40;;;;;;;;;;4863442;29;20052;-87
2022/06/26 11:43:11;;;;;;;3.47;1.50;;;;;;;;;;4880188;29;20047;-88
2022/06/26 11:45:39;;;;;;;2.75;1.52;;;;;;;;;;4863665;29;20129;-83
2022/06/26 11:48:19;;;;;;;4.43;1.65;;;;;;;;;;4863646;29;20044;-86
2022/06/26 11:50:47;;;;;;;3.55;1.40;;;;;;;;;;4863608;29;20085;-79
2022/06/26 11:53:18;;;;;;;1.83;1.20;;;;;;;;;;4863269;29;20384;-80
2022/06/26 11:55:45;;;;;;;3.10;1.55;;;;;;;;;;4882006;29;20025;-78
2022/06/26 11:58:12;;;;;;;2.08;1.42;;;;;;;;;;4871084;29;20043;-84
2022/06/26 12:00:38;;;;;;;2.88;1.30;;;;;;;;;;4867383;29;20033;-90
2022/06/26 12:03:04;;;;;;;1.85;1.40;;;;;;;;;;4868977;29;20041;-82
2022/06/26 12:05:30;;;;;;;2.25;1.67;;;;;;;;;;4886156;29;20060;-81
2022/06/26 12:07:57;;;;;;;2.20;1.30;;;;;;;;;;4870355;29;20028;-82
2022/06/26 12:10:34;;;;;;;2.00;1.35;;;;;;;;;;4878278;29;20479;-82
2022/06/26 12:13:01;;;;;;;4.72;1.60;;;;;;;;;;4880498;29;20049;-85
2022/06/26 12:15:29;;;;;;;2.35;1.38;;;;;;;;;;4870646;29;20386;-78
2022/06/26 12:17:57;;;;;;;2.75;1.50;;;;;;;;;;4888783;29;20104;-76
2022/06/26 12:20:24;;;;;;;1.83;1.33;;;;;;;;;;4862348;29;20033;-75
2022/06/26 12:22:52;;;;;;;2.80;1.70;;;;;;;;;;4889358;29;20115;-76
2022/06/26 12:25:31;;;;;;;2.10;1.30;;;;;;;;;;4862292;29;20029;-82
2022/06/26 12:27:58;;;;;;;2.25;1.40;;;;;;;;;;4867273;29;20025;-77
2022/06/26 12:30:27;;;;;;;4.45;1.70;;;;;;;;;;4869408;29;20021;-80
2022/06/26 12:32:53;;;;;;;3.58;1.63;;;;;;;;;;4880102;29;20072;-87
2022/06/26 12:35:19;;;;;;;1.95;1.38;;;;;;;;;;4862076;29;20033;-88
2022/06/26 12:37:45;;;;;;;2.00;1.35;;;;;;;;;;4864791;29;20044;-87
2022/06/26 12:40:12;;;;;;;2.47;1.70;;;;;;;;;;4899525;29;20123;-83
2022/06/26 12:42:38;;;;;;;3.03;1.50;;;;;;;;;;4889545;29;20041;-83
2022/06/26 12:45:05;;;;;;;2.55;1.60;;;;;;;;;;4878692;29;20071;-90
2022/06/26 12:47:31;;;;;;;2.20;1.40;;;;;;;;;;4882728;29;20123;-84
2022/06/26 12:49:58;;;;;;;3.25;1.58;;;;;;;;;;4884835;29;20029;-84
2022/06/26 12:52:32;;;;;;;2.55;1.50;;;;;;;;;;4901692;29;20056;-79
2022/06/26 12:54:58;;;;;;;3.95;1.50;;;;;;;;;;4880836;29;20032;-84
2022/06/26 12:57:24;;;;;;;1.70;1.42;;;;;;;;;;4897571;29;20029;-81
2022/06/26 12:59:53;;;;;;;1.90;1.40;;;;;;;;;;4898365;29;20180;-93
2022/06/26 13:02:19;;;;;;;2.22;1.40;;;;;;;;;;4880506;29;20029;-92
2022/06/26 13:04:46;;;;;;;2.10;1.50;;;;;;;;;;4875752;29;20067;-92
2022/06/26 13:07:12;;;;;;;2.63;1.67;;;;;;;;;;4883659;29;20099;-93
2022/06/26 13:09:38;;;;;;;2.15;1.50;;;;;;;;;;4887066;29;20086;-87
2022/06/26 13:12:05;;;;;;;2.72;1.58;;;;;;;;;;4884514;29;20116;-81
2022/06/26 13:14:31;;;;;;;2.20;1.42;;;;;;;;;;4874855;29;20391;-79
2022/06/26 13:16:57;;;;;;;2.00;1.40;;;;;;;;;;4889117;29;20022;-77
2022/06/26 13:19:23;;;;;;;1.90;1.35;;;;;;;;;;4887841;29;20033;-78
2022/06/26 13:21:51;;;;;;;2.25;1.30;;;;;;;;;;4875116;29;20111;-80
2022/06/26 13:24:17;;;;;;;2.13;1.30;;;;;;;;;;4892708;29;20078;-90
2022/06/26 13:26:43;;;;;;;4.00;1.55;;;;;;;;;;4884389;29;20025;-83
2022/06/26 13:29:10;;;;;;;2.78;1.60;;;;;;;;;;4894348;29;20029;-79
2022/06/26 13:31:36;;;;;;;2.05;1.40;;;;;;;;;;4889589;29;20394;-80
2022/06/26 13:34:03;;;;;;;2.22;1.35;;;;;;;;;;4894237;29;20029;-87
2022/06/26 13:36:38;;;;;;;3.40;1.38;;;;;;;;;;4870332;29;20028;-95
2022/06/26 13:39:08;;;;;;;2.78;1.38;;;;;;;;;;4870253;29;20029;-88
2022/06/26 13:41:34;;;;;;;1.92;1.23;;;;;;;;;;4877412;29;20115;-79
2022/06/26 13:44:01;;;;;;;1.58;1.13;;;;;;;;;;4891698;29;20036;-88
2022/06/26 13:46:27;;;;;;;2.75;1.30;;;;;;;;;;4866878;29;20076;-87
2022/06/26 13:48:53;;;;;;;2.50;1.17;;;;;;;;;;4865772;29;20037;-88
2022/06/26 13:51:19;;;;;;;2.92;1.15;;;;;;;;;;4865059;29;20037;-90
2022/06/26 13:53:46;;;;;;;2.33;1.40;;;;;;;;;;4865658;29;20033;-83
2022/06/26 13:56:12;;;;;;;3.15;1.02;;;;;;;;;;4865456;29;20033;-89
2022/06/26 13:58:38;;;;;;;2.42;1.08;;;;;;;;;;4864955;29;20447;-80
2022/06/26 14:01:05;;;;;;;2.40;1.20;;;;;;;;;;4864945;29;20029;-89
2022/06/26 14:03:33;;;;;;;4.03;1.55;;;;;;;;;;4882228;29;20502;-90
2022/06/26 14:06:24;;;;;;;1.83;1.20;;;;;;;;;;4867658;29;20077;-86
2022/06/26 14:08:48;;;;;;;2.35;1.17;;;;;;;;;;4881729;29;20048;-91
2022/06/26 14:11:15;;;;;;;2.47;1.30;;;;;;;;;;4868236;29;20040;-92
2022/06/26 14:13:43;;;;;;;2.42;1.20;;;;;;;;;;4868056;29;20089;-89
2022/06/26 14:16:13;;;;;;;2.05;1.30;;;;;;;;;;4871997;29;20522;-93
2022/06/26 14:18:39;;;;;;;2.38;1.33;;;;;;;;;;4865436;29;20033;-81
2022/06/26 14:21:07;;;;;;;3.53;1.17;;;;;;;;;;4864698;29;20040;-81
2022/06/26 14:26:39;;;;;;;2.50;1.20;;;;;;;;;;4894287;29;20442;-93
2022/06/26 14:29:05;;;;;;;2.20;1.30;;;;;;;;;;4884585;29;20497;-94
2022/06/26 14:31:31;;;;;;;2.53;1.05;;;;;;;;;;4884046;29;20079;-90
2022/06/26 14:34:03;;;;;;;1.63;0.98;;;;;;;;;;4883394;29;20161;-92
2022/06/26 14:36:30;;;;;;;3.53;1.17;;;;;;;;;;4883943;29;20032;-91
2022/06/26 14:39:03;;;;;;;2.53;1.20;;;;;;;;;;4884125;29;20040;-92
2022/06/26 14:41:32;;;;;;;2.20;0.80;;;;;;;;;;4884259;29;20127;-93
2022/06/26 14:43:59;;;;;;;2.10;0.98;;;;;;;;;;4884985;29;20043;-91
2022/06/26 14:46:27;;;;;;;2.65;1.10;;;;;;;;;;4882808;29;20024;-93
2022/06/26 14:48:59;;;;;;;1.65;1.13;;;;;;;;;;4883631;29;20051;-92
2022/06/26 14:51:34;;;;;;;2.53;1.25;;;;;;;;;;4883140;29;20112;-90
2022/06/26 14:54:00;;;;;;;2.17;1.35;;;;;;;;;;4883478;29;20039;-90
2022/06/26 14:56:31;;;;;;;5.90;1.30;;;;;;;;;;4885366;29;20036;-89
2022/06/26 14:58:57;;;;;;;4.25;1.30;;;;;;;;;;4883434;29;20073;-90
2022/06/26 15:01:23;;;;;;;2.13;1.17;;;;;;;;;;4882816;29;20060;-85
2022/06/26 15:03:49;;;;;;;1.80;1.20;;;;;;;;;;4883067;29;20482;-85
2022/06/26 15:06:16;;;;;;;3.58;1.38;;;;;;;;;;4882771;29;20028;-88